This is the latest recevied weather packets stored in our database for station/object DL7GAI-7. If no packets are shown the sender has not sent any weather packets the latest 10 day(s).
| Time | Temp. | Humidity | Pressure | Rain* | Wind** | Luminosity | Snow |
|---|---|---|---|---|---|---|---|
| 1777612685 | 2.22° C | 65% | 1027.4 hPa | 0 mm | 0.89 m/s, 315° | - | - |
| 1777611859 | 4.44° C | 61% | 1026.6 hPa | 0 mm | 0.89 m/s, 270° | - | - |
| 1777611049 | 4.44° C | 61% | 1026.6 hPa | 0 mm | 0.89 m/s, 270° | - | - |
| 1777610245 | 4.44° C | 61% | 1026.6 hPa | 0 mm | 0.89 m/s, 270° | - | - |
| 1777609390 | 4.44° C | 53% | 1026.5 hPa | 0 mm | 2.68 m/s, 0° | - | - |
| 1777608550 | 4.44° C | 53% | 1026.5 hPa | 0 mm | 2.68 m/s, 0° | - | - |
| 1777607755 | 2.22° C | 67% | 1026.9 hPa | 0 mm | 1.79 m/s, 0° | - | - |
| 1777606925 | 2.22° C | 67% | 1026.9 hPa | 0 mm | 1.79 m/s, 0° | - | - |
| 1777606039 | 2.22° C | 67% | 1027 hPa | 0 mm | 1.79 m/s, 45° | - | - |
| 1777605275 | 2.22° C | 67% | 1027 hPa | 0 mm | 1.79 m/s, 45° | - | - |
| 1777604459 | 3.89° C | 57% | 1026.7 hPa | 0 mm | 0.45 m/s, 0° | - | - |
| 1777603699 | 3.89° C | 57% | 1026.7 hPa | 0 mm | 0.45 m/s, 0° | - | - |
| 1777602955 | 3.33° C | 60% | 1026.7 hPa | 0 mm | 1.79 m/s, 0° | - | - |
| 1777602155 | 3.33° C | 60% | 1026.7 hPa | 0 mm | 1.79 m/s, 0° | - | - |
| 1777601350 | 3.33° C | 60% | 1026.7 hPa | 0 mm | 1.79 m/s, 0° | - | - |
| 1777600508 | 6.67° C | 45% | 1026 hPa | 0 mm | 0 m/s | - | - |
| 1777599745 | 6.67° C | 45% | 1026 hPa | 0 mm | 0 m/s | - | - |
| 1777598857 | 6.67° C | 43% | 1025.9 hPa | 0 mm | 1.79 m/s, 45° | - | - |
| 1777598035 | 6.67° C | 43% | 1025.9 hPa | 0 mm | 1.79 m/s, 45° | - | - |
| 1777597215 | 8.33° C | 37% | 1025.6 hPa | 0 mm | 2.68 m/s, 45° | - | - |
| 1777596405 | 8.33° C | 37% | 1025.6 hPa | 0 mm | 2.68 m/s, 45° | - | - |
| 1777595585 | 8.89° C | 37% | 1025.5 hPa | 0 mm | 2.24 m/s, 45° | - | - |
| 1777594855 | 8.89° C | 37% | 1025.5 hPa | 0 mm | 2.24 m/s, 45° | - | - |
| 1777594023 | 8.89° C | 37% | 1025.5 hPa | 0 mm | 2.24 m/s, 45° | - | - |
| 1777593165 | 9.44° C | 34% | 1025.2 hPa | 0 mm | 4.02 m/s, 45° | - | - |
* Rain latest hour (hover to see other rain measurements)
** Current wind speed in m/s (hover to see current wind gust speed)